createdAt,value
2023-02-02T00:02:23.524Z,4.55
2023-02-02T00:05:47.395Z,2.58
2023-02-02T00:09:10.958Z,4.63
2023-02-02T00:12:33.191Z,8.57
2023-02-02T00:15:55.418Z,4.00
2023-02-02T00:19:26.576Z,9.43
2023-02-02T00:22:48.725Z,7.47
2023-02-02T00:26:11.225Z,9.75
2023-02-02T00:29:33.522Z,12.05
2023-02-02T00:32:55.665Z,6.20
2023-02-02T00:36:20.920Z,6.18
2023-02-02T00:39:43.164Z,3.65
2023-02-02T00:43:05.470Z,5.53
2023-02-02T00:46:27.876Z,3.60
2023-02-02T00:49:50.133Z,2.72
2023-02-02T00:53:12.493Z,3.88
2023-02-02T00:56:35.529Z,4.15
2023-02-02T00:59:57.746Z,3.63
2023-02-02T01:03:20.010Z,3.58
2023-02-02T01:06:42.263Z,4.40
2023-02-02T01:10:06.591Z,4.47
2023-02-02T01:13:28.799Z,3.90
2023-02-02T01:16:51.196Z,2.45
2023-02-02T01:20:19.170Z,2.85
2023-02-02T01:23:41.333Z,6.50
2023-02-02T01:26:50.233Z,3.28
2023-02-02T01:30:13.125Z,4.30
2023-02-02T01:33:35.594Z,3.97
2023-02-02T01:36:58.879Z,8.77
2023-02-02T01:40:21.181Z,3.70
2023-02-02T01:43:43.949Z,1.70
2023-02-02T01:47:06.592Z,2.45
2023-02-02T01:50:32.741Z,3.30
2023-02-02T01:53:57.730Z,5.50
2023-02-02T01:57:33.451Z,1.88
2023-02-02T02:00:56.155Z,4.53
2023-02-02T02:04:19.334Z,2.50
2023-02-02T02:07:44.358Z,5.00
2023-02-02T02:11:07.015Z,2.13
2023-02-02T02:14:47.930Z,4.03
2023-02-02T02:18:23.977Z,2.78
2023-02-02T02:22:07.913Z,5.97
2023-02-02T02:26:07.590Z,2.83
2023-02-02T02:30:05.482Z,4.10
2023-02-02T02:33:44.351Z,5.35
2023-02-02T02:37:15.992Z,3.67
2023-02-02T02:41:15.706Z,4.22
2023-02-02T02:44:38.779Z,1.75
2023-02-02T02:48:03.168Z,2.63
2023-02-02T02:51:46.724Z,1.02
2023-02-02T02:55:19.635Z,3.00
2023-02-02T02:59:00.986Z,3.10
2023-02-02T03:02:38.368Z,3.25
2023-02-02T03:06:32.404Z,3.33
2023-02-02T03:09:56.966Z,3.22
2023-02-02T03:13:19.312Z,2.72
2023-02-02T03:16:41.516Z,2.45
2023-02-02T03:20:03.989Z,4.75
2023-02-02T03:23:26.696Z,3.55
2023-02-02T03:26:49.088Z,3.30
2023-02-02T03:30:13.761Z,2.10
2023-02-02T03:33:38.148Z,3.40
2023-02-02T03:37:00.410Z,2.70
2023-02-02T03:40:22.706Z,2.00
2023-02-02T03:43:44.997Z,2.10
2023-02-02T03:47:07.265Z,4.70
2023-02-02T03:50:29.465Z,2.13
2023-02-02T03:53:51.733Z,2.20
2023-02-02T03:57:13.926Z,3.30
2023-02-02T04:00:36.427Z,2.97
2023-02-02T04:03:59.465Z,1.92
2023-02-02T04:07:21.840Z,2.10
2023-02-02T04:10:44.064Z,2.38
2023-02-02T04:14:07.100Z,2.45
2023-02-02T04:17:29.348Z,3.50
2023-02-02T04:20:59.778Z,4.97
2023-02-02T04:24:21.983Z,2.20
2023-02-02T04:27:44.366Z,2.17
2023-02-02T04:31:06.715Z,2.72
2023-02-02T04:34:29.045Z,1.27
2023-02-02T04:37:51.419Z,2.17
2023-02-02T04:41:14.656Z,1.67
2023-02-02T04:44:37.046Z,3.55
2023-02-02T04:47:59.550Z,5.25
2023-02-02T04:51:21.914Z,4.65
2023-02-02T04:54:44.314Z,3.30
2023-02-02T04:58:06.579Z,3.85
2023-02-02T05:01:30.814Z,1.63
2023-02-02T05:04:53.232Z,2.92
2023-02-02T05:08:15.526Z,2.65
2023-02-02T05:11:39.151Z,2.97
2023-02-02T05:15:03.452Z,1.42
2023-02-02T05:18:25.945Z,2.63
2023-02-02T05:21:51.093Z,2.33
2023-02-02T05:25:13.974Z,2.03
2023-02-02T05:28:36.314Z,1.77
2023-02-02T05:31:58.573Z,1.60
2023-02-02T05:35:20.972Z,3.75
2023-02-02T05:38:43.227Z,2.60
2023-02-02T05:42:05.511Z,1.42
2023-02-02T05:45:27.725Z,2.90
2023-02-02T05:48:50.018Z,1.85
2023-02-02T05:52:18.011Z,2.40
2023-02-02T05:55:40.417Z,0.98
2023-02-02T05:59:06.376Z,2.17
2023-02-02T06:02:28.684Z,1.45
2023-02-02T06:05:50.867Z,2.40
2023-02-02T06:09:13.148Z,1.30
2023-02-02T06:12:35.385Z,1.85
2023-02-02T06:15:57.692Z,1.55
2023-02-02T06:19:20.050Z,2.03
2023-02-02T06:22:43.875Z,4.03
2023-02-02T06:26:08.248Z,2.22
2023-02-02T06:29:30.647Z,2.60
2023-02-02T06:32:53.456Z,2.25
2023-02-02T06:36:15.797Z,2.35
2023-02-02T06:39:38.025Z,3.35
2023-02-02T06:43:02.177Z,4.18
2023-02-02T06:46:24.401Z,2.17
2023-02-02T06:49:46.661Z,2.40
2023-02-02T06:53:08.831Z,2.28
2023-02-02T06:56:31.145Z,3.25
2023-02-02T06:59:53.398Z,2.78
2023-02-02T07:03:16.437Z,1.38
2023-02-02T07:06:39.850Z,2.08
2023-02-02T07:10:02.071Z,0.98
2023-02-02T07:13:24.229Z,3.85
2023-02-02T07:16:46.543Z,2.83
2023-02-02T07:20:09.540Z,3.67
2023-02-02T07:23:33.702Z,2.40
2023-02-02T07:26:57.972Z,3.15
2023-02-02T07:30:21.178Z,11.47
2023-02-02T07:33:44.835Z,8.05
2023-02-02T07:37:07.128Z,5.47
2023-02-02T07:40:29.326Z,7.95
2023-02-02T07:43:52.074Z,3.75
2023-02-02T07:47:14.316Z,5.43
2023-02-02T07:50:36.602Z,4.68
2023-02-02T07:53:59.484Z,5.55
2023-02-02T07:57:21.813Z,12.95
2023-02-02T08:00:44.455Z,40.97
2023-02-02T08:04:06.713Z,107.05
2023-02-02T08:07:29.160Z,115.43
2023-02-02T08:10:52.641Z,131.52
2023-02-02T08:14:14.894Z,114.88
2023-02-02T08:17:37.548Z,114.47
2023-02-02T08:21:01.428Z,93.30
2023-02-02T08:24:23.655Z,92.60
2023-02-02T08:27:45.868Z,76.72
2023-02-02T08:31:12.846Z,73.70
2023-02-02T08:34:36.930Z,72.35
2023-02-02T08:38:02.892Z,78.57
2023-02-02T08:41:25.204Z,75.47
2023-02-02T08:45:59.858Z,61.03
2023-02-02T08:48:29.827Z,56.75
2023-02-02T08:51:52.320Z,62.30
2023-02-02T08:55:15.870Z,56.70
2023-02-02T08:58:38.879Z,54.65
2023-02-02T09:02:01.131Z,53.33
2023-02-02T09:05:24.146Z,48.88
2023-02-02T09:08:47.238Z,45.83
2023-02-02T09:12:09.589Z,45.22
2023-02-02T09:15:31.914Z,41.58
2023-02-02T09:18:55.510Z,41.30
2023-02-02T09:22:17.727Z,39.67
2023-02-02T09:25:40.054Z,35.05
2023-02-02T09:29:04.833Z,33.80
2023-02-02T09:32:28.338Z,32.42
2023-02-02T09:35:50.604Z,30.27
2023-02-02T09:39:15.071Z,28.63
2023-02-02T09:43:00.131Z,28.70
2023-02-02T09:46:35.080Z,26.90
2023-02-02T09:50:14.176Z,24.88
2023-02-02T09:53:56.084Z,21.23
2023-02-02T09:57:23.820Z,26.33
2023-02-02T10:01:08.796Z,20.52
2023-02-02T10:04:41.881Z,19.87
2023-02-02T10:08:08.925Z,20.25
2023-02-02T10:11:41.402Z,22.88
2023-02-02T10:15:17.828Z,17.83
2023-02-02T10:18:52.268Z,20.40
2023-02-02T10:22:23.227Z,16.73
2023-02-02T10:25:55.941Z,14.82
2023-02-02T10:29:48.798Z,13.48
2023-02-02T10:33:33.577Z,12.75
2023-02-02T10:37:07.907Z,12.57
2023-02-02T10:40:59.679Z,13.90
2023-02-02T10:44:33.865Z,9.68
2023-02-02T10:47:56.206Z,12.82
2023-02-02T10:51:26.477Z,10.00
2023-02-02T10:55:10.639Z,13.77
2023-02-02T10:58:40.266Z,9.85
2023-02-02T11:02:18.966Z,6.93
2023-02-02T11:06:01.833Z,8.77
2023-02-02T11:09:42.901Z,7.63
2023-02-02T11:13:07.822Z,5.25
2023-02-02T11:16:42.493Z,8.65
2023-02-02T11:20:32.426Z,11.95
2023-02-02T11:23:54.663Z,6.20
2023-02-02T11:27:31.436Z,6.10
2023-02-02T11:30:54.498Z,5.88
2023-02-02T11:34:25.990Z,4.97
2023-02-02T11:37:57.388Z,4.95
2023-02-02T11:41:19.635Z,6.45
2023-02-02T11:44:47.853Z,6.43
2023-02-02T11:48:21.904Z,6.20
2023-02-02T11:51:45.350Z,3.60
2023-02-02T11:55:18.537Z,6.72
2023-02-02T11:58:47.792Z,4.68
2023-02-02T12:02:31.150Z,8.32
2023-02-02T12:05:53.555Z,6.43
2023-02-02T12:09:23.132Z,8.43
2023-02-02T12:12:52.712Z,8.52
2023-02-02T12:16:42.832Z,10.27
2023-02-02T12:20:20.430Z,7.60
2023-02-02T12:24:01.394Z,8.57
2023-02-02T12:27:26.391Z,7.10
2023-02-02T12:30:57.937Z,5.95
2023-02-02T12:34:49.566Z,4.72
2023-02-02T12:38:30.333Z,6.38
2023-02-02T12:42:10.501Z,7.00
2023-02-02T12:45:48.748Z,8.82
2023-02-02T12:49:55.117Z,5.70
2023-02-02T12:53:38.211Z,6.10
2023-02-02T12:57:26.542Z,6.07
2023-02-02T13:00:59.521Z,3.95
2023-02-02T13:04:49.196Z,4.68
2023-02-02T13:08:25.525Z,4.60
2023-02-02T13:11:55.922Z,3.25
2023-02-02T13:15:23.903Z,5.60
2023-02-02T13:18:56.781Z,5.10
2023-02-02T13:22:25.182Z,6.63
2023-02-02T13:25:53.594Z,2.67
2023-02-02T13:29:34.031Z,6.00
2023-02-02T13:33:13.579Z,2.90
2023-02-02T13:36:37.617Z,8.52
2023-02-02T13:40:12.560Z,2.40
2023-02-02T13:43:58.115Z,3.80
2023-02-02T13:47:29.312Z,4.00
2023-02-02T13:51:26.795Z,5.05
2023-02-02T13:55:09.879Z,3.17
2023-02-02T13:59:00.805Z,2.63
2023-02-02T14:02:32.412Z,3.28
2023-02-02T14:06:19.237Z,2.60
2023-02-02T14:09:42.146Z,2.35
2023-02-02T14:13:31.810Z,2.70
2023-02-02T14:16:56.136Z,8.85
2023-02-02T14:20:40.069Z,1.73
2023-02-02T14:24:21.640Z,3.90
2023-02-02T14:27:58.891Z,3.78
2023-02-02T14:31:29.603Z,1.25
2023-02-02T14:34:55.290Z,4.57
2023-02-02T14:38:39.527Z,2.28
2023-02-02T14:42:43.533Z,2.28
2023-02-02T14:46:14.854Z,5.07
2023-02-02T14:49:37.221Z,4.07
2023-02-02T14:53:08.442Z,1.05
2023-02-02T14:56:49.863Z,2.83
2023-02-02T15:00:23.846Z,2.22
2023-02-02T15:04:15.696Z,1.33
2023-02-02T15:07:52.849Z,2.67
2023-02-02T15:11:30.247Z,1.83
2023-02-02T15:15:08.333Z,1.38
2023-02-02T15:18:39.159Z,1.42
2023-02-02T15:22:23.036Z,3.58
2023-02-02T15:26:15.090Z,1.75
2023-02-02T15:29:47.003Z,3.30
2023-02-02T15:33:36.677Z,1.70
2023-02-02T15:37:03.613Z,3.17
2023-02-02T15:40:27.706Z,1.27
2023-02-02T15:43:51.497Z,1.52
2023-02-02T15:47:20.351Z,2.00
2023-02-02T15:50:48.412Z,0.75
2023-02-02T15:54:25.525Z,1.10
2023-02-02T15:57:47.816Z,0.77
2023-02-02T16:01:18.541Z,4.03
2023-02-02T16:04:42.936Z,1.75
2023-02-02T16:08:11.413Z,2.70
2023-02-02T16:11:33.990Z,1.85
2023-02-02T16:14:56.257Z,1.45
2023-02-02T16:18:18.490Z,3.50
2023-02-02T16:22:00.943Z,2.20
2023-02-02T16:25:25.002Z,3.70
2023-02-02T16:28:47.493Z,0.90
2023-02-02T16:32:31.223Z,2.10
2023-02-02T16:35:53.788Z,1.80
2023-02-02T16:39:22.554Z,1.92
2023-02-02T16:42:44.758Z,1.50
2023-02-02T16:46:13.568Z,1.83
2023-02-02T16:49:37.069Z,1.10
2023-02-02T16:53:05.025Z,1.73
2023-02-02T16:56:33.226Z,1.75
2023-02-02T16:59:59.682Z,1.70
2023-02-02T17:03:22.846Z,2.35
2023-02-02T17:06:52.531Z,0.80
2023-02-02T17:10:18.311Z,1.63
2023-02-02T17:13:41.417Z,1.00
2023-02-02T17:17:06.585Z,0.55
2023-02-02T17:20:29.067Z,1.75
2023-02-02T17:23:54.214Z,0.80
2023-02-02T17:27:23.465Z,1.40
2023-02-02T17:30:48.689Z,2.20
2023-02-02T17:37:37.168Z,0.50
2023-02-02T17:41:02.039Z,2.00
2023-02-02T17:44:24.425Z,2.40
2023-02-02T17:47:46.824Z,0.77
2023-02-02T17:51:16.605Z,2.10
2023-02-02T17:54:38.882Z,0.88
2023-02-02T17:58:01.138Z,0.95
2023-02-02T18:01:23.566Z,3.00
2023-02-02T18:04:45.945Z,2.03
2023-02-02T18:08:11.276Z,1.35
2023-02-02T18:14:55.736Z,1.08
2023-02-02T18:18:18.248Z,1.90
2023-02-02T18:21:40.522Z,0.95
2023-02-02T18:25:04.230Z,1.77
2023-02-02T18:28:26.439Z,10.10
2023-02-02T18:31:48.826Z,3.92
2023-02-02T18:35:12.512Z,8.38
2023-02-02T18:38:34.752Z,13.02
2023-02-02T18:41:57.668Z,18.95
2023-02-02T18:45:19.941Z,18.02
2023-02-02T18:48:42.629Z,16.92
2023-02-02T18:52:05.156Z,11.45
2023-02-02T18:55:27.773Z,15.20
2023-02-02T18:58:50.268Z,12.07
2023-02-02T19:02:18.685Z,14.80
2023-02-02T19:05:59.671Z,15.38
2023-02-02T19:09:22.284Z,5.35
2023-02-02T19:13:06.673Z,7.03
2023-02-02T19:16:32.863Z,6.65
2023-02-02T19:20:00.574Z,4.60
2023-02-02T19:23:28.949Z,6.20
2023-02-02T19:26:51.464Z,7.50
2023-02-02T19:30:20.295Z,8.00
2023-02-02T19:33:47.432Z,4.38
2023-02-02T19:37:30.549Z,7.20
2023-02-02T19:40:52.836Z,4.70
2023-02-02T19:44:18.667Z,6.22
2023-02-02T19:47:41.354Z,7.57
2023-02-02T19:51:27.750Z,5.88
2023-02-02T19:54:50.329Z,3.55
2023-02-02T19:58:22.181Z,4.18
2023-02-02T20:01:50.557Z,5.10
2023-02-02T20:05:22.412Z,4.10
2023-02-02T20:08:44.763Z,4.18
2023-02-02T20:12:22.500Z,6.07
2023-02-02T20:15:44.813Z,5.00
2023-02-02T20:19:16.801Z,4.03
2023-02-02T20:22:39.040Z,6.47
2023-02-02T20:26:07.304Z,2.50
2023-02-02T20:29:41.832Z,3.22
2023-02-02T20:33:20.821Z,3.95
2023-02-02T20:36:43.910Z,6.70
2023-02-02T20:40:32.704Z,5.03
2023-02-02T20:43:55.015Z,4.68
2023-02-02T20:47:17.737Z,4.32
2023-02-02T20:50:40.555Z,4.63
2023-02-02T20:54:02.770Z,2.97
2023-02-02T20:57:24.988Z,2.20
2023-02-02T21:00:47.220Z,2.58
2023-02-02T21:04:10.114Z,5.13
2023-02-02T21:07:32.519Z,1.85
2023-02-02T21:10:54.745Z,3.58
2023-02-02T21:14:17.358Z,3.50
2023-02-02T21:17:40.601Z,5.72
2023-02-02T21:21:02.955Z,4.15
2023-02-02T21:24:25.724Z,2.80
2023-02-02T21:27:47.952Z,5.18
2023-02-02T21:31:12.102Z,1.63
2023-02-02T21:34:35.056Z,4.10
2023-02-02T21:37:57.938Z,5.05
2023-02-02T21:41:21.313Z,3.35
2023-02-02T21:44:54.040Z,4.05
2023-02-02T21:48:19.242Z,2.72
2023-02-02T21:51:42.181Z,2.25
2023-02-02T21:55:22.393Z,1.55
2023-02-02T21:58:46.093Z,2.88
2023-02-02T22:02:26.254Z,1.75
2023-02-02T22:05:48.527Z,1.10
2023-02-02T22:09:13.624Z,3.35
2023-02-02T22:12:35.920Z,2.92
2023-02-02T22:15:58.178Z,3.60
2023-02-02T22:19:32.964Z,3.55
2023-02-02T22:22:55.167Z,1.90
2023-02-02T22:26:33.263Z,1.52
2023-02-02T22:30:06.623Z,2.15
2023-02-02T22:33:28.842Z,1.25
2023-02-02T22:36:51.057Z,2.13
2023-02-02T22:40:14.513Z,1.27
2023-02-02T22:43:36.743Z,1.60
2023-02-02T22:46:58.933Z,1.27
2023-02-02T22:50:23.674Z,3.58
2023-02-02T22:53:46.101Z,1.83
2023-02-02T22:57:08.347Z,1.25
2023-02-02T23:00:33.080Z,2.85
2023-02-02T23:03:55.424Z,2.00
2023-02-02T23:07:18.220Z,1.30
2023-02-02T23:10:40.449Z,2.33
2023-02-02T23:14:02.679Z,2.17
2023-02-02T23:17:25.020Z,2.30
2023-02-02T23:20:48.800Z,1.13
2023-02-02T23:24:11.095Z,1.85
2023-02-02T23:27:33.511Z,1.98
2023-02-02T23:30:59.106Z,2.42
2023-02-02T23:34:21.496Z,1.38
2023-02-02T23:37:44.062Z,3.60
2023-02-02T23:41:06.331Z,1.45
2023-02-02T23:44:28.564Z,2.25
2023-02-02T23:47:50.866Z,1.02
2023-02-02T23:51:13.582Z,2.30
2023-02-02T23:54:36.249Z,0.70
2023-02-02T23:57:58.631Z,2.25
